sensor_id;sensor_type;location;lat;lon;timestamp;pressure;altitude;pressure_sealevel;temperature;humidity
76397;BME280;66045;51.622;5.526;2023-01-19T00:00:05;100122.06;;;17.08;43.19
76397;BME280;66045;51.622;5.526;2023-01-19T00:02:32;100118.59;;;17.06;42.95
76397;BME280;66045;51.622;5.526;2023-01-19T00:04:58;100116.00;;;17.05;43.14
76397;BME280;66045;51.622;5.526;2023-01-19T00:07:23;100114.19;;;17.05;43.27
76397;BME280;66045;51.622;5.526;2023-01-19T00:09:49;100100.09;;;17.03;43.23
76397;BME280;66045;51.622;5.526;2023-01-19T00:12:14;100105.44;;;17.03;43.33
76397;BME280;66045;51.622;5.526;2023-01-19T00:14:39;100102.78;;;17.03;43.26
76397;BME280;66045;51.622;5.526;2023-01-19T00:17:05;100107.19;;;17.03;43.34
76397;BME280;66045;51.622;5.526;2023-01-19T00:19:30;100108.13;;;17.02;43.47
76397;BME280;66045;51.622;5.526;2023-01-19T00:21:55;100111.72;;;17.00;43.25
76397;BME280;66045;51.622;5.526;2023-01-19T00:24:21;100115.34;;;16.98;43.32
76397;BME280;66045;51.622;5.526;2023-01-19T00:26:46;100117.13;;;16.97;43.69
76397;BME280;66045;51.622;5.526;2023-01-19T00:29:12;100118.03;;;16.96;43.36
76397;BME280;66045;51.622;5.526;2023-01-19T00:31:38;100117.19;;;16.96;43.42
76397;BME280;66045;51.622;5.526;2023-01-19T00:34:05;100117.25;;;16.94;43.53
76397;BME280;66045;51.622;5.526;2023-01-19T00:36:31;100119.94;;;16.93;43.44
76397;BME280;66045;51.622;5.526;2023-01-19T00:38:57;100125.31;;;16.91;43.52
76397;BME280;66045;51.622;5.526;2023-01-19T00:41:23;100125.31;;;16.91;43.33
76397;BME280;66045;51.622;5.526;2023-01-19T00:44:09;100119.13;;;16.91;43.34
76397;BME280;66045;51.622;5.526;2023-01-19T00:46:34;100119.13;;;16.91;43.16
76397;BME280;66045;51.622;5.526;2023-01-19T00:49:00;100113.06;;;16.87;43.44
76397;BME280;66045;51.622;5.526;2023-01-19T00:51:25;100102.41;;;16.87;43.49
76397;BME280;66045;51.622;5.526;2023-01-19T00:53:50;100104.22;;;16.87;43.41
76397;BME280;66045;51.622;5.526;2023-01-19T00:56:16;100095.38;;;16.86;43.32
76397;BME280;66045;51.622;5.526;2023-01-19T00:58:42;100110.44;;;16.86;43.53
76397;BME280;66045;51.622;5.526;2023-01-19T01:01:09;100112.28;;;16.84;43.82
76397;BME280;66045;51.622;5.526;2023-01-19T01:03:34;100111.41;;;16.83;43.60
76397;BME280;66045;51.622;5.526;2023-01-19T01:06:00;100106.09;;;16.83;43.70
76397;BME280;66045;51.622;5.526;2023-01-19T01:08:25;100104.34;;;16.82;44.13
76397;BME280;66045;51.622;5.526;2023-01-19T01:10:51;100112.41;;;16.81;43.54
76397;BME280;66045;51.622;5.526;2023-01-19T01:13:16;100108.00;;;16.80;43.66
76397;BME280;66045;51.622;5.526;2023-01-19T01:15:42;100112.44;;;16.79;43.65
76397;BME280;66045;51.622;5.526;2023-01-19T01:18:08;100125.75;;;16.77;43.56
76397;BME280;66045;51.622;5.526;2023-01-19T01:20:33;100135.50;;;16.78;43.66
76397;BME280;66045;51.622;5.526;2023-01-19T01:23:01;100135.53;;;16.77;43.67
76397;BME280;66045;51.622;5.526;2023-01-19T01:25:27;100132.91;;;16.75;43.82
76397;BME280;66045;51.622;5.526;2023-01-19T01:27:55;100132.09;;;16.73;43.54
76397;BME280;66045;51.622;5.526;2023-01-19T01:30:21;100131.22;;;16.73;43.36
76397;BME280;66045;51.622;5.526;2023-01-19T01:32:47;100123.25;;;16.73;43.76
76397;BME280;66045;51.622;5.526;2023-01-19T01:35:13;100121.50;;;16.72;43.63
76397;BME280;66045;51.622;5.526;2023-01-19T01:37:39;100118.03;;;16.70;43.67
76397;BME280;66045;51.622;5.526;2023-01-19T01:40:10;100114.53;;;16.69;43.81
76397;BME280;66045;51.622;5.526;2023-01-19T01:42:35;100116.25;;;16.70;43.99
76397;BME280;66045;51.622;5.526;2023-01-19T01:47:50;100117.41;;;16.62;43.70
76397;BME280;66045;51.622;5.526;2023-01-19T01:50:23;100132.31;;;16.66;44.17
76397;BME280;66045;51.622;5.526;2023-01-19T01:52:52;100125.28;;;16.65;43.78
76397;BME280;66045;51.622;5.526;2023-01-19T01:55:20;100134.19;;;16.64;44.01
76397;BME280;66045;51.622;5.526;2023-01-19T01:57:53;100129.78;;;16.63;43.75
76397;BME280;66045;51.622;5.526;2023-01-19T02:00:22;100124.47;;;16.63;43.86
76397;BME280;66045;51.622;5.526;2023-01-19T02:02:47;100130.72;;;16.62;43.95
76397;BME280;66045;51.622;5.526;2023-01-19T02:05:28;100129.88;;;16.60;43.98
76397;BME280;66045;51.622;5.526;2023-01-19T02:08:06;100123.75;;;16.58;43.85
76397;BME280;66045;51.622;5.526;2023-01-19T02:10:53;100129.88;;;16.60;44.10
76397;BME280;66045;51.622;5.526;2023-01-19T02:13:40;100138.81;;;16.57;44.03
76397;BME280;66045;51.622;5.526;2023-01-19T02:16:08;100139.69;;;16.58;43.87
76397;BME280;66045;51.622;5.526;2023-01-19T02:18:36;100142.44;;;16.54;43.93
76397;BME280;66045;51.622;5.526;2023-01-19T02:21:15;100137.09;;;16.56;43.94
76397;BME280;66045;51.622;5.526;2023-01-19T02:23:48;100140.72;;;16.53;44.09
76397;BME280;66045;51.622;5.526;2023-01-19T02:26:27;100140.72;;;16.53;44.12
76397;BME280;66045;51.622;5.526;2023-01-19T02:29:23;100139.75;;;16.56;44.10
76397;BME280;66045;51.622;5.526;2023-01-19T02:31:49;100152.25;;;16.52;43.99
76397;BME280;66045;51.622;5.526;2023-01-19T02:34:17;100145.19;;;16.51;44.08
76397;BME280;66045;51.622;5.526;2023-01-19T02:36:55;100147.00;;;16.51;44.04
76397;BME280;66045;51.622;5.526;2023-01-19T02:39:26;100154.19;;;16.47;43.89
76397;BME280;66045;51.622;5.526;2023-01-19T02:41:57;100155.09;;;16.46;44.02
76397;BME280;66045;51.622;5.526;2023-01-19T02:44:25;100158.66;;;16.47;44.09
76397;BME280;66045;51.622;5.526;2023-01-19T02:46:55;100160.41;;;16.46;44.25
76397;BME280;66045;51.622;5.526;2023-01-19T02:49:21;100155.16;;;16.45;44.12
76397;BME280;66045;51.622;5.526;2023-01-19T02:51:47;100151.63;;;16.44;44.23
76397;BME280;66045;51.622;5.526;2023-01-19T03:04:32;100173.88;;;16.40;44.39
76397;BME280;66045;51.622;5.526;2023-01-19T03:07:11;100171.22;;;16.40;44.10
76397;BME280;66045;51.622;5.526;2023-01-19T03:12:17;100178.38;;;16.38;44.24
76397;BME280;66045;51.622;5.526;2023-01-19T03:14:46;100176.63;;;16.37;44.23
76397;BME280;66045;51.622;5.526;2023-01-19T03:17:14;100180.25;;;16.34;44.22
76397;BME280;66045;51.622;5.526;2023-01-19T03:19:42;100181.22;;;16.32;44.32
76397;BME280;66045;51.622;5.526;2023-01-19T03:22:12;100182.03;;;16.34;44.28
76397;BME280;66045;51.622;5.526;2023-01-19T03:24:44;100190.88;;;16.34;44.54
76397;BME280;66045;51.622;5.526;2023-01-19T03:27:16;100197.13;;;16.33;44.22
76397;BME280;66045;51.622;5.526;2023-01-19T03:29:49;100196.25;;;16.33;44.36
76397;BME280;66045;51.622;5.526;2023-01-19T03:32:18;100206.91;;;16.31;44.66
76397;BME280;66045;51.622;5.526;2023-01-19T03:34:48;100199.00;;;16.30;44.58
76397;BME280;66045;51.622;5.526;2023-01-19T03:37:16;100212.28;;;16.30;44.28
76397;BME280;66045;51.622;5.526;2023-01-19T03:39:43;100217.53;;;16.31;44.37
76397;BME280;66045;51.622;5.526;2023-01-19T03:42:12;100222.00;;;16.29;44.25
76397;BME280;66045;51.622;5.526;2023-01-19T03:44:39;100228.22;;;16.30;44.34
76397;BME280;66045;51.622;5.526;2023-01-19T03:47:06;100237.06;;;16.29;44.47
76397;BME280;66045;51.622;5.526;2023-01-19T03:49:33;100236.25;;;16.27;44.42
76397;BME280;66045;51.622;5.526;2023-01-19T03:52:00;100233.59;;;16.27;44.28
76397;BME280;66045;51.622;5.526;2023-01-19T03:54:26;100241.63;;;16.25;44.34
76397;BME280;66045;51.622;5.526;2023-01-19T03:56:52;100244.28;;;16.25;44.35
76397;BME280;66045;51.622;5.526;2023-01-19T03:59:18;100239.06;;;16.22;44.44
76397;BME280;66045;51.622;5.526;2023-01-19T04:01:44;100251.41;;;16.23;44.37
76397;BME280;66045;51.622;5.526;2023-01-19T04:04:10;100246.09;;;16.23;44.44
76397;BME280;66045;51.622;5.526;2023-01-19T04:06:35;100250.53;;;16.23;44.30
76397;BME280;66045;51.622;5.526;2023-01-19T04:09:00;100259.47;;;16.20;44.34
76397;BME280;66045;51.622;5.526;2023-01-19T04:11:26;100251.59;;;16.17;44.26
76397;BME280;66045;51.622;5.526;2023-01-19T04:13:52;100262.97;;;16.21;44.39
76397;BME280;66045;51.622;5.526;2023-01-19T04:16:17;100251.53;;;16.19;44.41
76397;BME280;66045;51.622;5.526;2023-01-19T04:18:45;100243.56;;;16.19;44.42
76397;BME280;66045;51.622;5.526;2023-01-19T04:21:10;100253.31;;;16.18;44.51
76397;BME280;66045;51.622;5.526;2023-01-19T04:23:36;100249.78;;;16.18;44.28
76397;BME280;66045;51.622;5.526;2023-01-19T04:26:06;100262.22;;;16.17;44.45
76397;BME280;66045;51.622;5.526;2023-01-19T04:28:33;100262.22;;;16.17;44.41
76397;BME280;66045;51.622;5.526;2023-01-19T04:30:59;100263.13;;;16.16;44.39
76397;BME280;66045;51.622;5.526;2023-01-19T04:33:25;100271.13;;;16.15;44.56
76397;BME280;66045;51.622;5.526;2023-01-19T04:35:51;100259.66;;;16.13;44.19
76397;BME280;66045;51.622;5.526;2023-01-19T04:38:17;100266.84;;;16.10;44.50
76397;BME280;66045;51.622;5.526;2023-01-19T04:40:43;100270.28;;;16.13;44.50
76397;BME280;66045;51.622;5.526;2023-01-19T04:43:09;100272.94;;;16.13;44.50
76397;BME280;66045;51.622;5.526;2023-01-19T04:45:34;100262.38;;;16.11;44.52
76397;BME280;66045;51.622;5.526;2023-01-19T04:48:00;100253.56;;;16.10;44.55
76397;BME280;66045;51.622;5.526;2023-01-19T04:50:28;100246.50;;;16.09;44.70
76397;BME280;66045;51.622;5.526;2023-01-19T04:52:54;100224.38;;;16.09;44.44
76397;BME280;66045;51.622;5.526;2023-01-19T04:55:19;100204.97;;;16.07;44.46
76397;BME280;66045;51.622;5.526;2023-01-19T04:57:44;100184.78;;;16.01;44.63
76397;BME280;66045;51.622;5.526;2023-01-19T05:00:10;100190.00;;;16.04;44.49
76397;BME280;66045;51.622;5.526;2023-01-19T05:02:36;100195.31;;;16.04;44.52
76397;BME280;66045;51.622;5.526;2023-01-19T05:05:02;100197.94;;;16.06;44.55
76397;BME280;66045;51.622;5.526;2023-01-19T05:07:27;100214.78;;;16.05;44.63
76397;BME280;66045;51.622;5.526;2023-01-19T05:09:53;100213.03;;;16.04;44.55
76397;BME280;66045;51.622;5.526;2023-01-19T05:12:19;100232.47;;;16.04;44.65
76397;BME280;66045;51.622;5.526;2023-01-19T05:14:44;100229.03;;;16.02;44.50
76397;BME280;66045;51.622;5.526;2023-01-19T05:17:10;100231.66;;;16.02;44.65
76397;BME280;66045;51.622;5.526;2023-01-19T05:19:35;100221.94;;;16.01;44.47
76397;BME280;66045;51.622;5.526;2023-01-19T05:22:02;100222.88;;;16.00;44.55
76397;BME280;66045;51.622;5.526;2023-01-19T05:24:28;100229.97;;;16.00;44.67
76397;BME280;66045;51.622;5.526;2023-01-19T05:26:53;100218.50;;;15.99;44.52
76397;BME280;66045;51.622;5.526;2023-01-19T05:29:19;100222.97;;;15.97;44.60
76397;BME280;66045;51.622;5.526;2023-01-19T05:31:44;100239.75;;;15.98;44.47
76397;BME280;66045;51.622;5.526;2023-01-19T05:34:10;100242.41;;;15.98;44.56
76397;BME280;66045;51.622;5.526;2023-01-19T05:36:36;100240.69;;;15.97;44.57
76397;BME280;66045;51.622;5.526;2023-01-19T05:39:01;100246.84;;;15.97;44.58
76397;BME280;66045;51.622;5.526;2023-01-19T05:41:26;100247.75;;;15.96;44.66
76397;BME280;66045;51.622;5.526;2023-01-19T05:43:52;100257.50;;;15.96;44.47
76397;BME280;66045;51.622;5.526;2023-01-19T05:46:17;100247.81;;;15.95;44.68
76397;BME280;66045;51.622;5.526;2023-01-19T05:48:43;100259.28;;;15.95;44.64
76397;BME280;66045;51.622;5.526;2023-01-19T05:51:09;100254.94;;;15.93;44.74
76397;BME280;66045;51.622;5.526;2023-01-19T05:53:34;100254.94;;;15.93;44.58
76397;BME280;66045;51.622;5.526;2023-01-19T05:56:01;100262.03;;;15.92;44.59
76397;BME280;66045;51.622;5.526;2023-01-19T05:58:27;100257.66;;;15.91;44.67
76397;BME280;66045;51.622;5.526;2023-01-19T06:00:53;100266.50;;;15.90;44.67
76397;BME280;66045;51.622;5.526;2023-01-19T06:03:18;100270.09;;;15.89;44.64
76397;BME280;66045;51.622;5.526;2023-01-19T06:05:44;100266.50;;;15.90;44.61
76397;BME280;66045;51.622;5.526;2023-01-19T06:08:09;100264.84;;;15.86;44.66
76397;BME280;66045;51.622;5.526;2023-01-19T06:10:34;100262.22;;;15.86;44.69
76397;BME280;66045;51.622;5.526;2023-01-19T06:13:00;100266.59;;;15.87;44.76
76397;BME280;66045;51.622;5.526;2023-01-19T06:15:25;100274.56;;;15.87;44.75
76397;BME280;66045;51.622;5.526;2023-01-19T06:17:51;100271.03;;;15.86;44.77
76397;BME280;66045;51.622;5.526;2023-01-19T06:20:16;100280.78;;;15.86;44.82
76397;BME280;66045;51.622;5.526;2023-01-19T06:22:41;100280.81;;;15.84;44.39
76397;BME280;66045;51.622;5.526;2023-01-19T06:25:07;100286.19;;;15.83;44.79
76397;BME280;66045;51.622;5.526;2023-01-19T06:27:32;100290.56;;;15.84;44.84
76397;BME280;66045;51.622;5.526;2023-01-19T06:29:58;100299.44;;;15.83;44.90
76397;BME280;66045;51.622;5.526;2023-01-19T06:32:23;100302.09;;;15.83;44.81
76397;BME280;66045;51.622;5.526;2023-01-19T06:34:48;100305.63;;;15.82;44.92
76397;BME280;66045;51.622;5.526;2023-01-19T06:37:14;100307.44;;;15.81;44.86
76397;BME280;66045;51.622;5.526;2023-01-19T06:39:40;100309.22;;;15.81;44.95
76397;BME280;66045;51.622;5.526;2023-01-19T06:42:07;100316.31;;;15.80;44.73
76397;BME280;66045;51.622;5.526;2023-01-19T06:44:32;100313.66;;;15.80;44.84
76397;BME280;66045;51.622;5.526;2023-01-19T06:46:57;100318.13;;;15.78;44.76
76397;BME280;66045;51.622;5.526;2023-01-19T06:49:23;100315.53;;;15.77;44.84
76397;BME280;66045;51.622;5.526;2023-01-19T06:51:48;100318.19;;;15.77;44.88
76397;BME280;66045;51.622;5.526;2023-01-19T06:54:14;100332.25;;;15.79;44.89
76397;BME280;66045;51.622;5.526;2023-01-19T06:56:40;100331.44;;;15.77;45.07
76397;BME280;66045;51.622;5.526;2023-01-19T06:59:05;100333.19;;;15.78;44.77
76397;BME280;66045;51.622;5.526;2023-01-19T07:01:31;100340.28;;;15.77;44.89
76397;BME280;66045;51.622;5.526;2023-01-19T07:03:57;100346.53;;;15.75;45.08
76397;BME280;66045;51.622;5.526;2023-01-19T07:06:22;100350.97;;;15.74;44.87
76397;BME280;66045;51.622;5.526;2023-01-19T07:08:48;100351.84;;;15.75;44.98
76397;BME280;66045;51.622;5.526;2023-01-19T07:11:13;100361.59;;;15.74;45.00
76397;BME280;66045;51.622;5.526;2023-01-19T07:13:39;100361.59;;;15.73;45.05
76397;BME280;66045;51.622;5.526;2023-01-19T07:16:06;100369.53;;;15.74;45.02
76397;BME280;66045;51.622;5.526;2023-01-19T07:18:31;100362.38;;;15.76;44.98
76397;BME280;66045;51.622;5.526;2023-01-19T07:20:57;100365.03;;;15.78;45.01
76397;BME280;66045;51.622;5.526;2023-01-19T07:23:22;100364.97;;;15.79;44.98
76397;BME280;66045;51.622;5.526;2023-01-19T07:25:48;100364.94;;;15.81;44.87
76397;BME280;66045;51.622;5.526;2023-01-19T07:28:13;100375.47;;;15.84;45.00
76397;BME280;66045;51.622;5.526;2023-01-19T07:30:42;100379.00;;;15.84;45.00
76397;BME280;66045;51.622;5.526;2023-01-19T07:33:07;100376.31;;;15.86;44.99
76397;BME280;66045;51.622;5.526;2023-01-19T07:35:33;100384.22;;;15.87;44.81
76397;BME280;66045;51.622;5.526;2023-01-19T07:37:58;100384.13;;;15.91;44.90
76397;BME280;66045;51.622;5.526;2023-01-19T07:40:24;100390.28;;;15.93;45.09
76397;BME280;66045;51.622;5.526;2023-01-19T07:42:49;100386.69;;;15.95;44.97
76397;BME280;66045;51.622;5.526;2023-01-19T07:45:16;100390.25;;;15.94;45.16
76397;BME280;66045;51.622;5.526;2023-01-19T07:47:43;100393.72;;;15.96;45.26
76397;BME280;66045;51.622;5.526;2023-01-19T07:50:09;100399.03;;;15.96;45.16
76397;BME280;66045;51.622;5.526;2023-01-19T07:52:35;100411.34;;;15.99;45.02
76397;BME280;66045;51.622;5.526;2023-01-19T07:55:00;100413.13;;;15.98;45.46
76397;BME280;66045;51.622;5.526;2023-01-19T07:57:26;100419.28;;;16.00;45.20
76397;BME280;66045;51.622;5.526;2023-01-19T07:59:51;100420.16;;;16.01;45.29
76397;BME280;66045;51.622;5.526;2023-01-19T08:02:17;100418.44;;;16.00;45.13
76397;BME280;66045;51.622;5.526;2023-01-19T08:04:42;100423.69;;;16.01;45.08
76397;BME280;66045;51.622;5.526;2023-01-19T08:07:07;100431.63;;;16.01;45.25
76397;BME280;66045;51.622;5.526;2023-01-19T08:09:33;100428.97;;;16.01;45.33
76397;BME280;66045;51.622;5.526;2023-01-19T08:11:59;100430.75;;;16.02;45.14
76397;BME280;66045;51.622;5.526;2023-01-19T08:14:24;100439.59;;;16.01;45.42
76397;BME280;66045;51.622;5.526;2023-01-19T08:16:49;100444.88;;;16.03;45.08
76397;BME280;66045;51.622;5.526;2023-01-19T08:19:15;100444.91;;;16.01;45.41
76397;BME280;66045;51.622;5.526;2023-01-19T08:21:40;100455.44;;;16.04;45.31
76397;BME280;66045;51.622;5.526;2023-01-19T08:24:06;100455.44;;;16.04;45.03
76397;BME280;66045;51.622;5.526;2023-01-19T08:26:34;100469.63;;;16.05;45.23
76397;BME280;66045;51.622;5.526;2023-01-19T08:29:02;100472.28;;;16.05;44.96
76397;BME280;66045;51.622;5.526;2023-01-19T08:31:28;100481.09;;;16.05;45.05
76397;BME280;66045;51.622;5.526;2023-01-19T08:33:53;100489.06;;;16.05;44.98
76397;BME280;66045;51.622;5.526;2023-01-19T08:36:20;100496.97;;;16.07;45.08
76397;BME280;66045;51.622;5.526;2023-01-19T08:38:45;100489.00;;;16.07;45.09
76397;BME280;66045;51.622;5.526;2023-01-19T08:41:12;100505.06;;;16.02;45.05
76397;BME280;66045;51.622;5.526;2023-01-19T08:43:37;100517.31;;;16.08;45.10
76397;BME280;66045;51.622;5.526;2023-01-19T08:46:03;100512.88;;;16.08;45.27
76397;BME280;66045;51.622;5.526;2023-01-19T08:48:29;100525.22;;;16.09;45.17
76397;BME280;66045;51.622;5.526;2023-01-19T08:50:55;100527.00;;;16.10;45.11
76397;BME280;66045;51.622;5.526;2023-01-19T08:53:21;100531.41;;;16.10;45.18
76397;BME280;66045;51.622;5.526;2023-01-19T08:55:48;100519.91;;;16.09;45.11
76397;BME280;66045;51.622;5.526;2023-01-19T08:58:13;100519.91;;;16.09;45.28
76397;BME280;66045;51.622;5.526;2023-01-19T09:00:39;100514.66;;;16.08;45.06
76397;BME280;66045;51.622;5.526;2023-01-19T09:03:06;100527.88;;;16.09;45.18
76397;BME280;66045;51.622;5.526;2023-01-19T09:05:35;100527.00;;;16.10;45.29
76397;BME280;66045;51.622;5.526;2023-01-19T09:08:07;100533.19;;;16.11;45.03
76397;BME280;66045;51.622;5.526;2023-01-19T09:10:33;100527.00;;;16.10;45.23
76397;BME280;66045;51.622;5.526;2023-01-19T09:13:01;100519.06;;;16.09;45.17
76397;BME280;66045;51.622;5.526;2023-01-19T09:15:28;100527.88;;;16.09;45.16
76397;BME280;66045;51.622;5.526;2023-01-19T09:17:54;100532.31;;;16.10;45.40
76397;BME280;66045;51.622;5.526;2023-01-19T09:20:19;100534.03;;;16.11;45.29
76397;BME280;66045;51.622;5.526;2023-01-19T09:22:44;100531.31;;;16.13;45.40
76397;BME280;66045;51.622;5.526;2023-01-19T09:25:11;100528.69;;;16.13;45.25
76397;BME280;66045;51.622;5.526;2023-01-19T09:27:37;100534.81;;;16.17;45.39
76397;BME280;66045;51.622;5.526;2023-01-19T09:30:03;100545.44;;;16.17;45.42
76397;BME280;66045;51.622;5.526;2023-01-19T09:32:28;100548.09;;;16.17;45.26
76397;BME280;66045;51.622;5.526;2023-01-19T09:34:54;100544.56;;;16.16;45.52
76397;BME280;66045;51.622;5.526;2023-01-19T09:37:20;100541.91;;;16.16;45.45
76397;BME280;66045;51.622;5.526;2023-01-19T09:39:46;100542.78;;;16.17;45.57
76397;BME280;66045;51.622;5.526;2023-01-19T09:42:22;100552.47;;;16.18;45.57
76397;BME280;66045;51.622;5.526;2023-01-19T09:44:50;100548.97;;;16.16;45.58
76397;BME280;66045;51.622;5.526;2023-01-19T09:47:22;100552.53;;;16.15;45.74
76397;BME280;66045;51.622;5.526;2023-01-19T09:49:54;100561.34;;;16.17;45.71
76397;BME280;66045;51.622;5.526;2023-01-19T09:52:22;100558.69;;;16.17;45.70
76397;BME280;66045;51.622;5.526;2023-01-19T09:54:56;100560.50;;;16.15;45.72
76397;BME280;66045;51.622;5.526;2023-01-19T09:57:23;100569.28;;;16.18;45.90
76397;BME280;66045;51.622;5.526;2023-01-19T09:59:49;100566.69;;;16.15;46.09
76397;BME280;66045;51.622;5.526;2023-01-19T10:05:01;100574.56;;;16.20;45.83
76397;BME280;66045;51.622;5.526;2023-01-19T10:20:34;100574.38;;;16.27;46.16
76397;BME280;66045;51.622;5.526;2023-01-19T10:23:03;100587.59;;;16.29;46.43
76397;BME280;66045;51.622;5.526;2023-01-19T10:25:30;100577.06;;;16.26;46.32
76397;BME280;66045;51.622;5.526;2023-01-19T10:27:57;100590.25;;;16.29;46.24
76397;BME280;66045;51.622;5.526;2023-01-19T10:30:27;100589.38;;;16.30;46.33
76397;BME280;66045;51.622;5.526;2023-01-19T10:32:53;100584.94;;;16.30;46.14
76397;BME280;66045;51.622;5.526;2023-01-19T10:35:21;100593.78;;;16.29;46.48
76397;BME280;66045;51.622;5.526;2023-01-19T10:37:55;100594.63;;;16.31;46.36
76397;BME280;66045;51.622;5.526;2023-01-19T10:40:52;100589.28;;;16.33;46.27
76397;BME280;66045;51.622;5.526;2023-01-19T10:46:00;100589.28;;;16.33;46.51
76397;BME280;66045;51.622;5.526;2023-01-19T10:48:40;100586.63;;;16.33;46.41
76397;BME280;66045;51.622;5.526;2023-01-19T10:51:08;100590.16;;;16.33;46.44
76397;BME280;66045;51.622;5.526;2023-01-19T10:53:33;100582.19;;;16.33;46.53
76397;BME280;66045;51.622;5.526;2023-01-19T10:56:20;100593.66;;;16.36;46.43
76397;BME280;66045;51.622;5.526;2023-01-19T10:58:46;100593.66;;;16.36;46.60
76397;BME280;66045;51.622;5.526;2023-01-19T11:01:14;100592.75;;;16.37;46.65
76397;BME280;66045;51.622;5.526;2023-01-19T11:03:40;100595.34;;;16.38;46.62
76397;BME280;66045;51.622;5.526;2023-01-19T11:08:37;100586.47;;;16.39;46.81
76397;BME280;66045;51.622;5.526;2023-01-19T11:11:03;100591.78;;;16.39;46.61
76397;BME280;66045;51.622;5.526;2023-01-19T11:13:30;100589.13;;;16.39;46.94
76397;BME280;66045;51.622;5.526;2023-01-19T11:16:04;100594.41;;;16.41;46.73
76397;BME280;66045;51.622;5.526;2023-01-19T11:18:36;100594.44;;;16.39;46.79
76397;BME280;66045;51.622;5.526;2023-01-19T11:21:10;100594.44;;;16.39;46.83
76397;BME280;66045;51.622;5.526;2023-01-19T11:23:48;100592.69;;;16.38;46.80
76397;BME280;66045;51.622;5.526;2023-01-19T11:26:45;100605.06;;;16.39;46.89
76397;BME280;66045;51.622;5.526;2023-01-19T11:29:23;100594.56;;;16.34;46.85
76397;BME280;66045;51.622;5.526;2023-01-19T11:31:50;100594.59;;;16.33;47.00
76397;BME280;66045;51.622;5.526;2023-01-19T11:34:36;100596.34;;;16.34;46.87
76397;BME280;66045;51.622;5.526;2023-01-19T11:39:47;100586.63;;;16.33;47.32
76397;BME280;66045;51.622;5.526;2023-01-19T11:42:13;100584.78;;;16.35;47.12
76397;BME280;66045;51.622;5.526;2023-01-19T11:44:47;100583.94;;;16.34;47.09
76397;BME280;66045;51.622;5.526;2023-01-19T11:47:33;100585.72;;;16.34;47.25
76397;BME280;66045;51.622;5.526;2023-01-19T11:50:05;100594.53;;;16.36;47.31
76397;BME280;66045;51.622;5.526;2023-01-19T11:55:46;100596.25;;;16.37;47.33
76397;BME280;66045;51.622;5.526;2023-01-19T11:58:15;100595.41;;;16.37;47.40
76397;BME280;66045;51.622;5.526;2023-01-19T12:01:04;100593.59;;;16.39;47.43
76397;BME280;66045;51.622;5.526;2023-01-19T12:03:36;100590.03;;;16.38;47.39
76397;BME280;66045;51.622;5.526;2023-01-19T12:06:06;100591.88;;;16.36;47.40
76397;BME280;66045;51.622;5.526;2023-01-19T12:08:36;100590.94;;;16.37;47.60
76397;BME280;66045;51.622;5.526;2023-01-19T12:11:03;100595.25;;;16.43;47.07
76397;BME280;66045;51.622;5.526;2023-01-19T12:13:30;100585.69;;;16.36;47.68
76397;BME280;66045;51.622;5.526;2023-01-19T12:16:10;100587.44;;;16.37;47.51
76397;BME280;66045;51.622;5.526;2023-01-19T12:18:43;100587.44;;;16.37;47.79
76397;BME280;66045;51.622;5.526;2023-01-19T12:21:10;100584.78;;;16.37;47.88
76397;BME280;66045;51.622;5.526;2023-01-19T12:28:46;100596.25;;;16.37;47.95
76397;BME280;66045;51.622;5.526;2023-01-19T12:31:17;100583.09;;;16.32;47.96
76397;BME280;66045;51.622;5.526;2023-01-19T12:33:43;100593.59;;;16.37;47.93
76397;BME280;66045;51.622;5.526;2023-01-19T12:41:34;100601.56;;;16.37;48.08
76397;BME280;66045;51.622;5.526;2023-01-19T12:49:39;100602.44;;;16.38;48.11
76397;BME280;66045;51.622;5.526;2023-01-19T12:54:54;100590.09;;;16.35;48.36
76397;BME280;66045;51.622;5.526;2023-01-19T12:57:37;100590.09;;;16.37;48.39
76397;BME280;66045;51.622;5.526;2023-01-19T13:00:07;100598.91;;;16.37;48.40
76397;BME280;66045;51.622;5.526;2023-01-19T13:02:55;100589.22;;;16.36;48.41
76397;BME280;66045;51.622;5.526;2023-01-19T13:05:47;100598.91;;;16.39;48.24
76397;BME280;66045;51.622;5.526;2023-01-19T13:08:15;100603.38;;;16.35;48.39
76397;BME280;66045;51.622;5.526;2023-01-19T13:15:53;100596.38;;;16.32;48.52
76397;BME280;66045;51.622;5.526;2023-01-19T13:18:27;100602.59;;;16.31;48.55
76397;BME280;66045;51.622;5.526;2023-01-19T13:21:03;100598.16;;;16.32;48.51
76397;BME280;66045;51.622;5.526;2023-01-19T13:26:18;100594.69;;;16.30;48.60
76397;BME280;66045;51.622;5.526;2023-01-19T13:28:45;100602.59;;;16.31;48.55
76397;BME280;66045;51.622;5.526;2023-01-19T13:31:13;100596.41;;;16.31;48.64
76397;BME280;66045;51.622;5.526;2023-01-19T13:33:51;100592.91;;;16.29;48.53
76397;BME280;66045;51.622;5.526;2023-01-19T13:36:45;100592.06;;;16.27;48.37
76397;BME280;66045;51.622;5.526;2023-01-19T13:39:15;100590.34;;;16.26;48.60
76397;BME280;66045;51.622;5.526;2023-01-19T13:41:43;100595.63;;;16.27;48.72
76397;BME280;66045;51.622;5.526;2023-01-19T13:44:27;100589.38;;;16.28;48.57
76397;BME280;66045;51.622;5.526;2023-01-19T13:46:54;100595.66;;;16.26;48.60
76397;BME280;66045;51.622;5.526;2023-01-19T13:49:28;100601.81;;;16.26;48.79
76397;BME280;66045;51.622;5.526;2023-01-19T13:52:21;100595.63;;;16.27;48.39
76397;BME280;66045;51.622;5.526;2023-01-19T13:57:22;100602.78;;;16.24;48.57
76397;BME280;66045;51.622;5.526;2023-01-19T14:05:22;100608.13;;;16.22;48.56
76397;BME280;66045;51.622;5.526;2023-01-19T14:10:30;100616.13;;;16.21;48.68
76397;BME280;66045;51.622;5.526;2023-01-19T14:13:04;100617.03;;;16.20;48.88
76397;BME280;66045;51.622;5.526;2023-01-19T14:15:32;100623.25;;;16.19;48.73